Time;durP1;ratioP1;P1;durP2;ratioP2;P2;SDS_P1;SDS_P2;PMS_P1;PMS_P2;Temp;Humidity;BMP_temperature;BMP_pressure;BME280_temperature;BME280_humidity;BME280_pressure;Samples;Min_cycle;Max_cycle;Signal;HPM_P1;HPM_P2
2022/05/27 00:04:22;;;;;;;25.27;16.75;;;;;;;13.29;87.59;100599.56;10436923;28;20132;-77
2022/05/27 00:09:25;;;;;;;31.38;17.10;;;;;;;13.00;88.19;100597.63;10424325;28;20073;-77
2022/05/27 00:14:28;;;;;;;19.38;13.98;;;;;;;13.00;87.87;100597.63;10444147;28;20502;-78
2022/05/27 00:19:32;;;;;;;20.30;13.02;;;;;;;13.03;87.91;100588.41;10439507;28;20491;-78
2022/05/27 00:24:36;;;;;;;21.38;15.65;;;;;;;13.05;88.04;100581.91;10440145;28;20048;-78
2022/05/27 00:29:39;;;;;;;18.92;13.40;;;;;;;12.79;88.56;100569.84;10437888;28;20091;-78
2022/05/27 00:35:03;;;;;;;;;;;;;;;12.93;87.79;100560.56;10445631;28;20045;-78
2022/05/27 00:40:07;;;;;;;21.00;9.98;;;;;;;12.78;88.00;100557.34;10433475;28;19924;-78
2022/05/27 00:45:18;;;;;;;18.73;9.65;;;;;;;12.59;88.65;100560.81;10443397;28;20053;-78
2022/05/27 00:50:26;;;;;;;22.02;14.68;;;;;;;13.00;87.63;100549.09;10438412;28;20094;-78
2022/05/27 00:55:34;;;;;;;19.35;13.40;;;;;;;12.91;87.90;100563.38;10434009;28;20072;-78
2022/05/27 01:00:37;;;;;;;14.90;10.63;;;;;;;12.76;88.15;100556.66;10429055;28;20525;-78
2022/05/27 01:05:44;;;;;;;22.65;12.90;;;;;;;12.81;87.62;100551.72;10446408;28;20091;-77
2022/05/27 01:10:56;;;;;;;16.88;11.93;;;;;;;12.47;89.04;100546.53;10414233;28;20057;-78
2022/05/27 01:16:12;;;;;;;12.35;8.00;;;;;;;12.13;91.19;100540.50;10420370;28;20176;-78
2022/05/27 01:21:24;;;;;;;13.32;10.95;;;;;;;12.17;89.96;100532.00;10429303;28;20120;-78
2022/05/27 01:27:09;;;;;;;19.48;14.05;;;;;;;11.98;90.38;100531.00;10433344;28;20579;-77
2022/05/27 01:32:18;;;;;;;16.35;14.00;;;;;;;12.06;90.75;100548.22;10261717;28;20150;-78
2022/05/27 01:37:27;;;;;;;17.50;12.25;;;;;;;12.02;90.54;100549.47;10418258;28;20062;-78
2022/05/27 01:42:38;;;;;;;22.27;15.10;;;;;;;12.22;89.46;100537.00;10433286;28;20049;-78
2022/05/27 01:47:51;;;;;;;19.65;15.93;;;;;;;12.28;89.50;100516.75;10430041;28;20383;-78
2022/05/27 01:52:59;;;;;;;13.25;10.70;;;;;;;12.17;89.58;100515.84;10429595;28;20056;-78
2022/05/27 01:58:09;;;;;;;21.02;14.70;;;;;;;12.23;89.61;100527.06;10434781;28;20148;-78
2022/05/27 02:03:16;;;;;;;13.40;8.40;;;;;;;11.95;90.31;100537.50;10443076;28;20072;-78
2022/05/27 02:08:22;;;;;;;20.00;16.02;;;;;;;12.16;89.85;100524.91;10443982;28;20048;-78
2022/05/27 02:13:30;;;;;;;23.50;16.52;;;;;;;12.09;89.96;100520.19;10440860;28;20041;-78
2022/05/27 02:18:39;;;;;;;25.95;17.45;;;;;;;12.06;90.94;100532.06;10442331;28;20084;-78
2022/05/27 02:23:47;;;;;;;27.25;18.38;;;;;;;12.15;91.26;100585.16;10444892;28;20056;-78
2022/05/27 02:28:57;;;;;;;16.80;11.45;;;;;;;11.74;90.38;100580.56;10415552;28;20380;-76
2022/05/27 02:39:32;;;;;;;9.35;6.68;;;;;;;11.74;90.13;100591.31;10395954;28;20052;-76
2022/05/27 02:44:44;;;;;;;6.75;4.88;;;;;;;11.45;89.34;100572.19;10435439;28;20465;-78
2022/05/27 02:49:57;;;;;;;5.00;3.77;;;;;;;11.29;89.50;100567.19;10458625;28;20047;-79
2022/05/27 02:55:07;;;;;;;5.57;3.20;;;;;;;11.23;89.48;100570.38;10451571;28;20057;-78
2022/05/27 03:00:13;;;;;;;6.03;3.17;;;;;;;11.01;88.69;100563.16;10458752;28;20055;-78
2022/05/27 03:05:20;;;;;;;3.75;3.22;;;;;;;11.42;87.75;100565.22;10439949;28;20049;-79
2022/05/27 03:10:34;;;;;;;4.70;3.50;;;;;;;11.21;89.48;100580.41;10436502;28;20152;-79
2022/05/27 03:15:50;;;;;;;4.85;3.70;;;;;;;11.03;89.47;100578.19;10445680;28;20045;-79
2022/05/27 03:21:07;;;;;;;8.20;4.45;;;;;;;11.46;88.33;100595.41;10441015;28;20441;-79
2022/05/27 03:26:21;;;;;;;7.95;3.22;;;;;;;11.23;88.78;100583.81;10452313;28;20057;-79
2022/05/27 03:31:28;;;;;;;7.95;4.93;;;;;;;11.20;89.11;100579.53;10445004;28;20055;-78
2022/05/27 03:36:38;;;;;;;8.27;5.20;;;;;;;11.26;88.63;100589.78;10450900;28;20045;-79
2022/05/27 03:41:46;;;;;;;9.55;5.45;;;;;;;11.21;89.24;100589.31;10443245;28;20040;-79
2022/05/27 03:46:51;;;;;;;7.18;5.60;;;;;;;11.32;88.98;100592.97;10442248;28;20106;-79
2022/05/27 03:51:59;;;;;;;7.95;5.75;;;;;;;11.15;89.62;100595.19;10465950;28;20569;-78
2022/05/27 03:57:03;;;;;;;8.63;6.70;;;;;;;11.55;87.75;100588.44;10451405;28;20212;-79
2022/05/27 04:02:07;;;;;;;11.77;7.70;;;;;;;11.77;87.53;100596.44;10450795;28;20053;-78
2022/05/27 04:07:11;;;;;;;11.05;7.30;;;;;;;11.98;87.05;100601.84;10445420;28;20049;-79
2022/05/27 04:12:14;;;;;;;10.50;7.32;;;;;;;11.82;87.37;100596.03;10444859;28;20116;-80
2022/05/27 04:17:31;;;;;;;11.75;8.35;;;;;;;12.20;85.82;100603.59;10451639;28;20098;-82
2022/05/27 04:22:36;;;;;;;11.23;7.18;;;;;;;12.06;86.55;100602.06;10447474;28;20051;-82
2022/05/27 04:27:39;;;;;;;10.98;7.55;;;;;;;11.98;86.88;100601.00;10431198;28;20115;-82
2022/05/27 04:32:42;;;;;;;;;;;;;;;11.72;87.14;100604.88;10425115;28;20072;-82
2022/05/27 04:37:46;;;;;;;16.58;8.55;;;;;;;11.76;86.84;100594.72;10443717;28;19921;-82
2022/05/27 04:42:49;;;;;;;12.75;9.55;;;;;;;12.10;86.24;100594.59;10424127;28;20087;-82
2022/05/27 04:47:52;;;;;;;16.98;9.75;;;;;;;12.03;86.50;100590.72;10451629;28;20052;-79
2022/05/27 04:52:57;;;;;;;18.23;9.57;;;;;;;11.94;86.17;100603.09;10439694;28;20049;-80
2022/05/27 04:58:00;;;;;;;18.60;9.93;;;;;;;11.99;86.65;100600.88;10440250;28;20060;-81
2022/05/27 05:03:04;;;;;;;14.43;8.32;;;;;;;12.01;85.28;100604.28;10430767;28;20057;-81
2022/05/27 05:08:15;;;;;;;17.48;9.73;;;;;;;12.54;84.19;100598.09;10437679;28;20049;-81
2022/05/27 05:13:18;;;;;;;12.18;8.32;;;;;;;12.42;84.57;100599.97;10453903;28;20041;-78
2022/05/27 05:18:21;;;;;;;;;;;;;;;12.43;84.24;100609.78;10447731;28;20063;-81
2022/05/27 05:23:25;;;;;;;10.82;7.85;;;;;;;12.27;84.46;100601.25;10449800;28;19971;-82
2022/05/27 05:28:28;;;;;;;13.80;6.63;;;;;;;12.35;84.15;100612.28;10436159;28;20037;-81
2022/05/27 05:33:31;;;;;;;12.23;6.13;;;;;;;12.16;83.94;100594.94;10437401;28;20493;-81
2022/05/27 05:38:35;;;;;;;;;;;;;;;12.20;83.51;100584.75;10434850;28;20364;-82
2022/05/27 05:43:37;;;;;;;9.88;6.53;;;;;;;12.39;81.69;100594.84;10441300;28;19928;-81
2022/05/27 05:48:40;;;;;;;;;;;;;;;12.81;81.92;100602.94;10440076;28;20046;-80
2022/05/27 05:53:44;;;;;;;10.80;6.95;;;;;;;12.61;82.20;100612.72;10437420;28;20065;-81
2022/05/27 05:58:48;;;;;;;14.93;7.10;;;;;;;12.67;82.72;100612.22;10434401;28;20049;-80
2022/05/27 06:03:51;;;;;;;12.63;6.80;;;;;;;12.89;81.79;100624.69;10427921;28;20410;-81
2022/05/27 06:08:55;;;;;;;11.18;6.65;;;;;;;12.97;81.58;100619.47;10433606;28;20148;-81
2022/05/27 06:13:58;;;;;;;8.30;4.43;;;;;;;13.39;78.61;100626.63;10459013;28;20555;-81
2022/05/27 06:19:01;;;;;;;8.68;4.68;;;;;;;12.43;79.82;100634.03;10446538;28;20048;-81
2022/05/27 06:24:07;;;;;;;11.25;4.57;;;;;;;12.55;78.86;100626.72;10450028;28;20126;-81
2022/05/27 06:34:30;;;;;;;7.10;3.65;;;;;;;13.04;78.51;100631.41;10452948;28;20037;-80
2022/05/27 06:39:37;;;;;;;7.38;3.38;;;;;;;13.31;76.95;100626.44;10454550;28;20128;-81
2022/05/27 06:44:40;;;;;;;12.45;4.45;;;;;;;13.75;76.29;100627.88;10447022;28;20412;-80
2022/05/27 06:49:44;;;;;;;5.40;3.10;;;;;;;13.56;73.80;100631.38;10437654;28;20471;-79
2022/05/27 06:54:48;;;;;;;5.30;2.75;;;;;;;13.93;71.75;100634.28;10444057;28;20072;-81
2022/05/27 06:59:51;;;;;;;9.52;3.70;;;;;;;13.21;74.24;100637.16;10426752;28;20045;-79
2022/05/27 07:04:54;;;;;;;5.40;3.10;;;;;;;12.90;73.67;100641.72;10456828;28;20045;-78
2022/05/27 07:09:59;;;;;;;7.47;3.00;;;;;;;13.08;71.50;100644.63;10438603;28;20041;-78
2022/05/27 07:15:02;;;;;;;8.40;2.25;;;;;;;13.31;67.93;100646.16;10466000;28;20041;-79
2022/05/27 07:20:06;;;;;;;6.88;2.00;;;;;;;14.47;64.57;100636.59;10457441;28;20086;-76
2022/05/27 07:25:12;;;;;;;10.57;2.80;;;;;;;15.38;62.44;100645.06;10463447;28;20116;-77
2022/05/27 07:30:15;;;;;;;8.43;2.58;;;;;;;14.64;63.16;100641.25;10430833;28;20418;-78
2022/05/27 07:35:18;;;;;;;6.03;2.78;;;;;;;15.13;61.59;100635.75;10439874;28;20164;-77
2022/05/27 07:40:23;;;;;;;8.13;2.58;;;;;;;14.64;61.62;100638.56;10464694;28;20478;-79
2022/05/27 07:45:27;;;;;;;5.57;2.83;;;;;;;14.56;60.12;100633.91;10472940;28;20100;-79
2022/05/27 07:50:30;;;;;;;16.83;2.47;;;;;;;15.08;61.43;100641.59;10469348;28;20037;-79
2022/05/27 07:55:35;;;;;;;10.85;2.42;;;;;;;15.17;59.50;100640.72;10466645;28;20113;-78
2022/05/27 08:00:38;;;;;;;9.68;2.33;;;;;;;14.48;63.22;100641.00;10469520;28;20096;-78
2022/05/27 08:05:46;;;;;;;8.20;2.28;;;;;;;15.58;61.55;100641.28;10453946;28;20423;-78
2022/05/27 08:10:51;;;;;;;6.90;2.22;;;;;;;15.29;60.07;100645.94;10461483;28;20394;-79
2022/05/27 08:15:55;;;;;;;8.50;2.88;;;;;;;15.19;59.12;100651.38;10470987;28;20041;-78
2022/05/27 08:20:58;;;;;;;8.40;2.00;;;;;;;15.86;57.73;100639.41;10445487;28;20133;-79
2022/05/27 08:26:03;;;;;;;7.30;2.03;;;;;;;15.55;58.25;100638.88;10444935;28;20073;-78
2022/05/27 08:31:06;;;;;;;7.40;2.25;;;;;;;15.55;56.46;100643.41;10461711;28;20044;-79
2022/05/27 08:42:03;;;;;;;9.43;2.50;;;;;;;14.64;53.97;100635.00;10311931;28;20482;-77
2022/05/27 08:47:15;;;;;;;6.03;1.92;;;;;;;15.34;53.58;100631.00;10413417;28;20057;-78
2022/05/27 08:52:24;;;;;;;5.83;2.10;;;;;;;15.35;53.12;100629.13;10438633;28;20052;-78
2022/05/27 09:03:05;;;;;;;8.93;2.50;;;;;;;14.76;50.12;100659.06;10453172;28;20994;-77
2022/05/27 09:08:13;;;;;;;15.02;2.38;;;;;;;15.08;49.32;100641.59;10444568;28;20046;-78
2022/05/27 09:13:22;;;;;;;6.25;1.77;;;;;;;14.87;49.58;100633.69;10439292;28;20273;-78
2022/05/27 09:18:30;;;;;;;5.18;2.10;;;;;;;15.38;47.13;100635.09;10456997;28;20056;-78
2022/05/27 09:23:45;;;;;;;6.00;1.63;;;;;;;15.86;46.45;100654.81;10461723;28;20042;-76
2022/05/27 09:29:03;;;;;;;5.13;2.15;;;;;;;15.92;45.69;100671.28;10459240;28;20037;-78
2022/05/27 09:34:10;;;;;;;7.50;2.28;;;;;;;15.70;45.11;100642.75;10451998;28;20536;-78
2022/05/27 09:39:18;;;;;;;8.38;2.15;;;;;;;16.46;44.48;100636.09;10460835;28;20117;-78
2022/05/27 09:44:27;;;;;;;4.97;2.05;;;;;;;15.50;46.53;100651.16;10427173;28;20107;-78
2022/05/27 09:49:30;;;;;;;11.15;2.33;;;;;;;15.92;45.22;100644.19;10443652;28;20061;-77
2022/05/27 09:54:44;;;;;;;6.20;2.15;;;;;;;16.64;46.42;100636.06;10432816;28;20045;-77
2022/05/27 09:59:53;;;;;;;6.50;1.73;;;;;;;16.19;45.88;100628.88;10440013;28;20175;-78
2022/05/27 10:04:59;;;;;;;7.57;2.28;;;;;;;15.40;48.01;100633.09;10434067;28;20041;-78
2022/05/27 10:10:26;;;;;;;5.78;1.85;;;;;;;16.26;46.26;100653.53;10435976;28;20049;-78
2022/05/27 10:15:35;;;;;;;4.53;1.58;;;;;;;16.21;46.74;100631.44;10459264;23;20104;-78
2022/05/27 10:20:38;;;;;;;10.40;2.67;;;;;;;16.67;46.61;100651.19;10418745;28;20121;-77
2022/05/27 10:25:43;;;;;;;9.77;2.42;;;;;;;16.71;43.29;100633.59;10389802;28;20119;-77
2022/05/27 10:30:55;;;;;;;5.13;1.63;;;;;;;16.23;42.42;100640.25;10404051;28;20041;-77
2022/05/27 10:35:58;;;;;;;7.20;1.58;;;;;;;15.72;41.79;100628.25;10396696;28;20070;-77
2022/05/27 10:41:07;;;;;;;5.75;1.83;;;;;;;17.56;40.11;100644.63;10410457;28;20054;-75
2022/05/27 10:46:18;;;;;;;7.22;1.98;;;;;;;16.87;39.63;100654.56;10409874;28;20041;-77
2022/05/27 10:51:34;;;;;;;8.07;1.65;;;;;;;16.51;41.68;100654.59;10405290;28;20050;-77
2022/05/27 11:02:03;;;;;;;10.48;2.03;;;;;;;16.66;42.15;100660.34;10377308;28;20574;-77
2022/05/27 11:02:27;;;;;;;7.00;1.83;;;;;;;16.59;39.10;100657.38;10406571;28;20390;-77
2022/05/27 11:07:39;;;;;;;5.33;1.70;;;;;;;16.94;38.69;100650.19;10401279;28;20038;-77
2022/05/27 11:18:24;;;;;;;7.55;2.10;;;;;;;16.39;39.15;100653.16;10393690;28;20137;-76
2022/05/27 11:23:56;;;;;;;5.95;1.70;;;;;;;16.60;39.40;100678.09;10387310;28;20041;-76
2022/05/27 11:29:21;;;;;;;12.50;2.00;;;;;;;17.27;39.10;100670.25;10387278;28;20057;-76
2022/05/27 11:34:31;;;;;;;3.42;1.42;;;;;;;17.01;37.87;100656.69;10396211;28;20042;-76
2022/05/27 11:39:59;;;;;;;7.18;1.98;;;;;;;17.47;39.70;100669.03;10394912;28;20084;-77
2022/05/27 11:45:12;;;;;;;6.22;2.05;;;;;;;17.52;37.22;100671.22;10429901;28;20121;-76
2022/05/27 11:50:27;;;;;;;9.35;1.40;;;;;;;17.81;36.59;100675.44;10421784;28;20046;-77
2022/05/27 11:55:48;;;;;;;8.45;2.65;;;;;;;18.30;37.79;100657.41;10388252;28;20077;-77
2022/05/27 12:00:58;;;;;;;9.07;2.45;;;;;;;16.93;40.57;100667.50;10381008;28;20095;-77
2022/05/27 12:06:05;;;;;;;7.80;1.63;;;;;;;17.70;38.62;100682.88;10397634;28;20045;-76
2022/05/27 12:11:12;;;;;;;8.90;1.75;;;;;;;18.24;36.34;100660.81;10386699;28;20513;-77
2022/05/27 12:16:18;;;;;;;8.38;2.10;;;;;;;18.46;36.73;100644.84;10376449;28;20088;-76
2022/05/27 12:21:27;;;;;;;6.43;1.52;;;;;;;17.11;37.80;100667.41;10388468;28;20120;-76
2022/05/27 12:26:33;;;;;;;7.10;1.63;;;;;;;18.43;37.71;100659.63;10408333;28;20042;-76
2022/05/27 12:31:37;;;;;;;6.93;1.83;;;;;;;18.61;38.03;100651.28;10387790;28;20487;-76
2022/05/27 12:36:41;;;;;;;5.45;1.65;;;;;;;19.86;36.05;100665.31;10377445;28;20042;-76
2022/05/27 12:41:44;;;;;;;10.35;2.40;;;;;;;19.07;35.81;100645.31;10388265;28;20115;-76
2022/05/27 12:46:53;;;;;;;5.78;2.00;;;;;;;18.67;37.12;100664.19;10390316;28;20635;-76
2022/05/27 12:51:57;;;;;;;8.50;1.95;;;;;;;17.15;39.11;100663.41;10398949;28;20046;-76
2022/05/27 13:02:53;;;;;;;11.38;1.90;;;;;;;17.54;36.94;100679.22;10390105;28;20042;-78
2022/05/27 13:08:20;;;;;;;8.10;1.92;;;;;;;17.79;38.39;100664.72;10391317;28;20099;-75
2022/05/27 13:13:33;;;;;;;9.77;2.40;;;;;;;18.53;38.18;100679.34;10399036;28;20099;-75
2022/05/27 13:18:39;;;;;;;8.07;1.90;;;;;;;18.71;36.47;100687.34;10393182;28;20064;-76
2022/05/27 13:23:58;;;;;;;7.65;2.00;;;;;;;18.70;37.23;100672.03;10391340;28;20049;-76
2022/05/27 13:29:01;;;;;;;12.05;2.00;;;;;;;19.15;36.41;100665.19;10397878;28;20057;-76
2022/05/27 13:34:13;;;;;;;6.22;2.17;;;;;;;18.08;36.97;100685.25;10401674;28;20418;-75
2022/05/27 13:39:23;;;;;;;4.80;2.15;;;;;;;16.30;39.03;100673.91;10400022;28;20107;-76
2022/05/27 13:44:27;;;;;;;4.60;1.55;;;;;;;16.63;39.59;100669.63;10418231;28;20054;-76
2022/05/27 13:49:33;;;;;;;8.00;1.63;;;;;;;18.29;37.19;100680.19;10406912;28;20095;-76
2022/05/27 13:54:38;;;;;;;10.00;2.03;;;;;;;17.21;37.07;100677.19;10409242;28;20042;-75
2022/05/27 13:59:47;;;;;;;4.68;1.33;;;;;;;18.33;36.23;100673.38;10411536;28;20406;-76
2022/05/27 14:04:54;;;;;;;3.17;1.65;;;;;;;17.48;37.29;100665.28;10410382;28;20045;-76
2022/05/27 14:10:00;;;;;;;8.45;1.63;;;;;;;17.25;38.81;100675.88;10398288;28;20041;-76
2022/05/27 14:15:06;;;;;;;10.52;1.77;;;;;;;18.75;36.44;100653.31;10408106;28;20034;-77
2022/05/27 14:20:12;;;;;;;6.47;1.60;;;;;;;18.00;35.16;100641.72;10400060;28;20050;-76
2022/05/27 14:25:22;;;;;;;5.10;1.50;;;;;;;17.89;35.63;100656.44;10391707;28;20044;-76
2022/05/27 14:30:31;;;;;;;7.82;1.67;;;;;;;17.89;34.77;100659.16;10415944;28;20046;-77
2022/05/27 14:35:34;;;;;;;5.50;2.03;;;;;;;17.86;36.11;100673.09;10396995;28;20046;-77
2022/05/27 14:40:45;;;;;;;5.93;1.55;;;;;;;18.16;36.73;100674.38;10409359;28;20040;-75
2022/05/27 14:45:53;;;;;;;10.13;2.58;;;;;;;18.69;36.52;100677.66;10397053;28;20045;-77
2022/05/27 14:50:57;;;;;;;3.65;1.60;;;;;;;18.86;33.87;100664.91;10405885;28;20057;-76
2022/05/27 14:56:01;;;;;;;11.13;2.00;;;;;;;19.46;33.52;100667.16;10388841;28;20061;-77
2022/05/27 15:01:07;;;;;;;8.52;1.90;;;;;;;18.00;36.47;100675.19;10412746;28;20483;-77
2022/05/27 15:06:17;;;;;;;4.03;2.10;;;;;;;18.72;36.71;100678.16;10395747;28;20057;-76
2022/05/27 15:11:25;;;;;;;7.45;2.00;;;;;;;18.80;36.21;100680.06;10413429;28;20403;-76
2022/05/27 15:16:34;;;;;;;8.43;2.28;;;;;;;16.95;39.10;100682.59;10413111;28;20132;-76
2022/05/27 15:21:40;;;;;;;8.85;2.50;;;;;;;18.35;37.03;100703.97;10396552;28;20045;-76
2022/05/27 15:37:35;;;;;;;10.10;2.00;;;;;;;18.91;37.97;100676.13;10405780;28;20091;-76
2022/05/27 15:42:48;;;;;;;8.35;1.77;;;;;;;18.17;37.05;100678.78;10415670;28;20491;-77
2022/05/27 15:47:51;;;;;;;8.57;1.85;;;;;;;17.83;37.34;100682.41;10406642;28;20053;-77
2022/05/27 15:52:54;;;;;;;9.70;1.85;;;;;;;18.16;37.75;100690.69;10416752;28;20455;-77
2022/05/27 15:57:58;;;;;;;9.50;1.33;;;;;;;17.23;37.13;100699.59;10407210;28;20042;-76
2022/05/27 16:03:01;;;;;;;8.15;1.48;;;;;;;16.42;39.19;100702.47;10415642;28;20410;-77
2022/05/27 16:08:05;;;;;;;6.05;1.38;;;;;;;17.00;38.21;100676.69;10415389;28;20560;-77
2022/05/27 16:13:10;;;;;;;4.40;0.77;;;;;;;16.79;37.54;100696.03;10415409;28;20160;-76
2022/05/27 16:18:13;;;;;;;8.00;1.48;;;;;;;17.16;37.64;100711.25;10427572;23;20913;-76
2022/05/27 16:23:16;;;;;;;5.45;1.50;;;;;;;17.18;39.51;100711.97;10395814;28;20487;-76
2022/05/27 16:28:20;;;;;;;5.10;1.17;;;;;;;16.29;41.12;100711.03;10348426;28;20054;-77
2022/05/27 16:33:23;;;;;;;9.27;1.50;;;;;;;16.59;39.75;100720.63;10346500;28;20046;-76
2022/05/27 16:38:26;;;;;;;10.25;1.40;;;;;;;19.26;34.83;100710.28;10354515;28;20097;-76
2022/05/27 16:43:30;;;;;;;7.32;1.35;;;;;;;16.44;39.13;100722.16;10348646;28;20495;-76
2022/05/27 16:48:33;;;;;;;8.43;1.77;;;;;;;18.95;36.04;100721.03;10354110;28;20395;-76
2022/05/27 16:53:36;;;;;;;7.32;1.63;;;;;;;19.49;34.99;100712.25;10345486;28;20045;-77
2022/05/27 16:58:41;;;;;;;6.72;1.75;;;;;;;19.15;35.25;100726.97;10345144;28;20058;-76
2022/05/27 17:03:44;;;;;;;6.15;1.35;;;;;;;20.98;32.64;100718.41;10349781;28;20076;-77
2022/05/27 17:08:48;;;;;;;6.10;1.75;;;;;;;21.86;31.66;100732.41;10360298;28;20052;-77
2022/05/27 17:13:53;;;;;;;7.15;1.70;;;;;;;15.65;41.83;100756.09;10360317;28;20050;-77
2022/05/27 17:18:55;;;;;;;9.52;1.85;;;;;;;18.87;36.33;100740.09;10351620;28;20046;-75
2022/05/27 17:23:59;;;;;;;7.97;1.80;;;;;;;20.44;34.55;100737.59;10341063;28;20482;-76
2022/05/27 17:29:03;;;;;;;6.10;1.70;;;;;;;17.03;38.90;100742.38;10365159;28;20677;-76
2022/05/27 17:34:06;;;;;;;9.77;1.63;;;;;;;16.76;40.51;100737.91;10355404;28;20038;-76
2022/05/27 17:39:09;;;;;;;13.52;1.75;;;;;;;18.45;37.10;100738.31;10370588;28;20049;-76
2022/05/27 17:44:15;;;;;;;4.15;1.35;;;;;;;14.99;43.68;100745.28;10381525;28;20104;-75
2022/05/27 17:54:41;;;;;;;7.32;2.03;;;;;;;13.70;46.61;100762.41;10385653;28;20038;-76
2022/05/27 17:59:45;;;;;;;7.03;1.80;;;;;;;14.05;46.18;100755.72;10396947;28;20065;-76
2022/05/27 18:04:48;;;;;;;8.43;2.30;;;;;;;13.34;46.40;100759.22;10391769;28;20083;-77
2022/05/27 18:09:51;;;;;;;5.10;1.30;;;;;;;13.47;47.44;100762.59;10396104;28;20042;-77
2022/05/27 18:14:59;;;;;;;10.20;1.30;;;;;;;13.10;47.75;100762.16;10400633;28;20037;-77
2022/05/27 18:20:03;;;;;;;8.48;1.40;;;;;;;13.57;46.49;100756.38;10371097;28;20050;-76
2022/05/27 18:25:06;;;;;;;7.88;1.65;;;;;;;13.22;47.63;100762.97;10381964;28;20515;-76
2022/05/27 18:30:13;;;;;;;7.05;1.40;;;;;;;13.01;48.25;100761.13;10373636;28;20183;-76
2022/05/27 18:35:19;;;;;;;6.40;1.23;;;;;;;12.90;48.61;100776.50;10351576;28;20038;-76
2022/05/27 18:40:22;;;;;;;5.78;1.60;;;;;;;12.65;49.19;100783.13;10361141;28;20797;-77
2022/05/27 18:45:26;;;;;;;8.13;2.05;;;;;;;12.57;48.88;100778.38;10365686;28;20411;-77
2022/05/27 18:50:29;;;;;;;7.32;1.55;;;;;;;12.53;49.32;100783.16;10344780;28;20042;-78
2022/05/27 18:55:32;;;;;;;;;;;;;;;12.65;48.67;100775.03;10362028;28;20048;-77
2022/05/27 19:00:38;;;;;;;4.07;1.23;;;;;;;11.85;49.89;100773.47;10354118;28;19929;-77
2022/05/27 19:05:41;;;;;;;8.18;1.65;;;;;;;12.24;50.16;100787.38;10363033;28;20565;-77
2022/05/27 19:10:44;;;;;;;;;;;;;;;12.34;50.12;100789.22;10356729;28;20050;-77
2022/05/27 19:15:48;;;;;;;7.72;1.70;;;;;;;12.46;49.94;100794.56;10344786;28;19926;-78
2022/05/27 19:26:12;;;;;;;7.38;1.48;;;;;;;12.51;50.29;100803.97;10346529;28;20130;-78
2022/05/27 19:31:17;;;;;;;8.25;1.98;;;;;;;12.35;51.35;100807.06;10354627;28;20054;-78
2022/05/27 19:36:22;;;;;;;6.60;1.33;;;;;;;12.46;50.89;100795.41;10352889;28;20100;-77
2022/05/27 19:41:25;;;;;;;9.63;1.85;;;;;;;12.18;51.60;100796.81;10361617;28;20042;-77
2022/05/27 19:46:29;;;;;;;;;;;;;;;12.22;52.26;100800.09;10356912;28;20450;-77
2022/05/27 19:51:34;;;;;;;10.00;1.83;;;;;;;12.33;51.99;100792.88;10353574;28;19976;-77
2022/05/27 19:56:38;;;;;;;8.45;1.90;;;;;;;12.25;52.30;100794.44;10352324;28;20050;-77
2022/05/27 20:07:00;;;;;;;8.38;1.02;;;;;;;11.98;52.83;100786.78;10351494;28;20054;-76
2022/05/27 20:12:03;;;;;;;;;;;;;;;11.95;53.24;100795.94;10347496;28;20113;-76
2022/05/27 20:17:07;;;;;;;11.75;2.65;;;;;;;12.04;53.01;100797.03;10353755;28;20342;-76
2022/05/27 20:22:10;;;;;;;7.30;1.40;;;;;;;11.36;54.16;100801.56;10366199;28;20046;-76
2022/05/27 20:27:14;;;;;;;9.60;1.70;;;;;;;11.44;54.45;100794.59;10367665;28;20059;-77
2022/05/27 20:32:20;;;;;;;10.13;2.00;;;;;;;11.77;53.92;100792.06;10356473;28;20081;-75
2022/05/27 20:37:22;;;;;;;10.23;2.28;;;;;;;11.53;54.35;100790.31;10342425;28;20042;-76
2022/05/27 20:42:26;;;;;;;;;;;;;;;11.40;54.40;100798.47;10350723;28;20046;-76
2022/05/27 20:47:30;;;;;;;8.50;1.80;;;;;;;11.10;55.52;100790.94;10346514;28;19925;-76
2022/05/27 20:52:33;;;;;;;11.00;2.13;;;;;;;11.11;55.25;100784.59;10337152;28;20046;-76
2022/05/27 20:57:36;;;;;;;8.45;1.48;;;;;;;11.39;54.59;100794.09;10358299;28;20069;-76
2022/05/27 21:02:40;;;;;;;;;;;;;;;11.53;54.97;100790.31;10339947;28;20046;-76
2022/05/27 21:07:43;;;;;;;8.05;1.75;;;;;;;11.44;55.01;100791.91;10354021;28;19932;-76
2022/05/27 21:12:46;;;;;;;;;;;;;;;11.25;55.72;100781.72;10354232;28;20046;-76
2022/05/27 21:17:50;;;;;;;8.05;1.20;;;;;;;10.88;56.18;100772.91;10353315;28;20421;-74
2022/05/27 21:22:53;;;;;;;10.68;2.28;;;;;;;10.78;56.66;100780.81;10374796;28;20054;-75
2022/05/27 21:27:56;;;;;;;10.90;1.73;;;;;;;10.33;57.91;100775.22;10381186;28;20494;-75
2022/05/27 21:33:01;;;;;;;8.85;2.38;;;;;;;10.88;56.85;100777.41;10370320;28;20042;-77
2022/05/27 21:38:05;;;;;;;9.10;1.67;;;;;;;10.76;57.31;100776.53;10377662;28;20414;-75
2022/05/27 21:43:28;;;;;;;8.43;2.22;;;;;;;10.93;57.04;100768.03;10359035;28;20073;-75
2022/05/27 21:48:34;;;;;;;9.43;1.88;;;;;;;10.59;57.53;100765.22;10345244;28;20125;-76
2022/05/27 21:53:37;;;;;;;8.32;1.40;;;;;;;10.61;57.97;100759.72;10355978;28;20046;-76
2022/05/27 21:58:40;;;;;;;9.95;2.03;;;;;;;10.41;58.41;100761.22;10357229;28;20100;-77
2022/05/27 22:03:45;;;;;;;;;;;;;;;10.43;58.80;100750.38;10347276;28;20446;-76
2022/05/27 22:08:50;;;;;;;7.60;1.08;;;;;;;9.91;60.20;100761.28;10351473;28;19980;-75
2022/05/27 22:13:53;;;;;;;5.95;1.48;;;;;;;10.19;59.96;100759.25;10354724;28;20133;-75
2022/05/27 22:18:57;;;;;;;7.05;1.95;;;;;;;9.94;60.90;100761.06;10418483;23;20104;-78
2022/05/27 22:24:00;;;;;;;14.57;1.58;;;;;;;10.16;60.30;100754.13;10405361;28;20038;-79
2022/05/27 22:29:05;;;;;;;;;;;;;;;10.03;60.74;100739.88;10382364;28;20111;-79
2022/05/27 22:34:09;;;;;;;8.50;1.60;;;;;;;9.81;61.03;100748.59;10392678;28;19921;-79
2022/05/27 22:39:14;;;;;;;8.23;1.50;;;;;;;9.99;60.51;100739.25;10403948;28;20041;-79
2022/05/27 22:44:16;;;;;;;6.95;1.67;;;;;;;9.69;61.28;100727.06;10391809;28;20104;-79
2022/05/27 22:49:21;;;;;;;;;;;;;;;9.99;61.25;100722.31;10438543;28;20053;-79
2022/05/27 22:54:24;;;;;;;11.00;1.80;;;;;;;10.06;61.03;100728.91;10394779;28;19967;-79
2022/05/27 22:59:27;;;;;;;;;;;;;;;10.36;60.61;100720.41;10392556;28;20066;-78
2022/05/27 23:04:32;;;;;;;12.75;2.65;;;;;;;10.16;61.39;100709.34;10417903;28;19921;-77
2022/05/27 23:09:35;;;;;;;8.52;1.77;;;;;;;9.93;61.67;100716.41;10440762;28;20062;-77
2022/05/27 23:20:00;;;;;;;12.35;2.13;;;;;;;9.81;62.54;100698.47;10404974;28;20079;-78
2022/05/27 23:25:03;;;;;;;9.30;2.20;;;;;;;9.86;62.81;100692.81;10410348;28;20042;-79
2022/05/27 23:30:07;;;;;;;12.43;2.00;;;;;;;9.86;62.06;100692.81;10401733;28;20048;-79
2022/05/27 23:35:12;;;;;;;6.88;2.20;;;;;;;9.62;63.50;100682.00;10415769;28;20072;-79
2022/05/27 23:40:16;;;;;;;9.93;1.50;;;;;;;9.56;63.45;100671.72;10400581;28;20042;-80
2022/05/27 23:45:19;;;;;;;6.65;1.80;;;;;;;9.15;64.47;100678.22;10386532;28;20556;-80
2022/05/27 23:50:23;;;;;;;10.80;2.38;;;;;;;9.62;63.95;100661.41;10418298;28;20103;-79
2022/05/27 23:55:26;;;;;;;15.35;2.58;;;;;;;9.22;65.18;100664.28;10412841;28;20041;-80
